createdAt,value
2022-09-20T00:01:18.813Z,96195.66
2022-09-20T00:03:49.548Z,96138.31
2022-09-20T00:06:20.170Z,96210.84
2022-09-20T00:08:48.757Z,96200.41
2022-09-20T00:11:19.197Z,96181.91
2022-09-20T00:13:49.903Z,96182.63
2022-09-20T00:16:20.320Z,96169.72
2022-09-20T00:18:51.061Z,96182.38
2022-09-20T00:21:20.497Z,96184.94
2022-09-20T00:23:48.511Z,96173.00
2022-09-20T00:26:17.558Z,96181.69
2022-09-20T00:28:47.154Z,96181.91
2022-09-20T00:31:15.940Z,96179.66
2022-09-20T00:34:13.302Z,96176.06
2022-09-20T00:36:42.909Z,96178.00
2022-09-20T00:39:13.414Z,96166.28
2022-09-20T00:41:41.491Z,96169.00
2022-09-20T00:44:43.145Z,96173.53
2022-09-20T00:47:15.845Z,96167.91
2022-09-20T00:49:43.996Z,96169.88
2022-09-20T00:52:13.410Z,96179.53
2022-09-20T00:54:41.463Z,96174.41
2022-09-20T00:57:09.679Z,96177.03
2022-09-20T00:59:40.562Z,96177.03
2022-09-20T01:02:11.385Z,96154.09
2022-09-20T01:04:40.686Z,96174.00
2022-09-20T01:07:09.589Z,96116.88
2022-09-20T01:09:38.976Z,96169.72
2022-09-20T01:12:09.409Z,96166.78
2022-09-20T01:14:37.637Z,96182.38
2022-09-20T01:17:07.109Z,96175.75
2022-09-20T01:19:41.729Z,96090.75
2022-09-20T01:22:18.581Z,96168.69
2022-09-20T01:24:52.515Z,96153.78
2022-09-20T01:27:25.049Z,96168.38
2022-09-20T01:30:08.164Z,96162.22
2022-09-20T01:33:04.197Z,96166.91
2022-09-20T01:35:34.408Z,96166.69
2022-09-20T01:38:20.282Z,96173.22
2022-09-20T01:40:58.014Z,96171.28
2022-09-20T01:43:30.307Z,96173.59
2022-09-20T01:46:00.335Z,96184.47
2022-09-20T01:48:34.725Z,96099.63
2022-09-20T01:51:26.343Z,96169.59
2022-09-20T01:54:24.357Z,96167.66
2022-09-20T01:57:10.691Z,96168.25
2022-09-20T02:00:07.133Z,96169.06
2022-09-20T02:03:17.962Z,96163.13
2022-09-20T02:06:08.146Z,96146.38
2022-09-20T02:08:51.070Z,96168.25
2022-09-20T02:11:20.278Z,96156.13
2022-09-20T02:14:06.511Z,96170.09
2022-09-20T02:16:45.924Z,96163.47
2022-09-20T02:19:37.555Z,96130.78
2022-09-20T02:22:38.892Z,96163.47
2022-09-20T02:25:19.779Z,96163.56
2022-09-20T02:27:57.228Z,96159.38
2022-09-20T02:30:32.591Z,96077.50
2022-09-20T02:33:21.509Z,96163.56
2022-09-20T02:36:03.399Z,96166.13
2022-09-20T02:38:42.061Z,96083.72
2022-09-20T02:41:28.026Z,96170.31
2022-09-20T02:44:01.542Z,96168.78
2022-09-20T02:46:32.763Z,96174.00
2022-09-20T02:49:05.651Z,96163.19
2022-09-20T02:51:39.655Z,96172.06
2022-09-20T02:54:15.817Z,96147.22
2022-09-20T02:56:48.678Z,96168.75
2022-09-20T02:59:26.534Z,96159.97
2022-09-20T03:02:03.851Z,96180.31
2022-09-20T03:04:39.949Z,96182.06
2022-09-20T03:07:13.765Z,96097.09
2022-09-20T03:09:47.795Z,96172.75
2022-09-20T03:12:20.677Z,96109.75
2022-09-20T03:14:57.039Z,96181.25
2022-09-20T03:17:32.667Z,96184.63
2022-09-20T03:20:16.779Z,96178.09
2022-09-20T03:22:55.996Z,96182.38
2022-09-20T03:25:48.135Z,96180.66
2022-09-20T03:28:27.424Z,96114.66
2022-09-20T03:31:02.098Z,96167.91
2022-09-20T03:33:36.430Z,96165.34
2022-09-20T03:36:14.597Z,96177.16
2022-09-20T03:38:59.880Z,96184.22
2022-09-20T03:41:55.317Z,96171.16
2022-09-20T03:44:33.353Z,96179.75
2022-09-20T03:47:09.308Z,96176.50
2022-09-20T03:49:59.628Z,96173.44
2022-09-20T03:52:40.190Z,96088.28
2022-09-20T03:55:31.837Z,96098.47
2022-09-20T03:58:24.299Z,96173.88
2022-09-20T04:01:04.743Z,96174.50
2022-09-20T04:03:40.058Z,96171.22
2022-09-20T04:06:35.418Z,96172.97
2022-09-20T04:09:39.297Z,96178.56
2022-09-20T04:12:13.835Z,96173.69
2022-09-20T04:14:45.283Z,96162.84
2022-09-20T04:17:26.527Z,96177.97
2022-09-20T04:20:00.059Z,96178.06
2022-09-20T04:22:30.607Z,96182.16
2022-09-20T04:25:02.559Z,96189.00
2022-09-20T04:27:37.356Z,96185.31
2022-09-20T04:30:08.050Z,96181.50
2022-09-20T04:32:39.604Z,96191.53
2022-09-20T04:35:42.087Z,96189.16
2022-09-20T04:38:12.185Z,96168.97
2022-09-20T04:40:55.271Z,96195.63
2022-09-20T04:44:14.138Z,96203.28
2022-09-20T04:47:06.017Z,96201.56
2022-09-20T04:49:58.700Z,96209.94
2022-09-20T04:52:40.313Z,96212.09
2022-09-20T04:55:26.924Z,96211.03
2022-09-20T04:58:27.587Z,96207.59
2022-09-20T05:01:19.477Z,96213.31
2022-09-20T05:04:10.906Z,96193.72
2022-09-20T05:07:00.284Z,96212.69
2022-09-20T05:09:48.258Z,96219.63
2022-09-20T05:12:42.643Z,96220.88
2022-09-20T05:15:24.992Z,96136.03
2022-09-20T05:18:10.186Z,96226.19
2022-09-20T05:20:51.507Z,96223.81
2022-09-20T05:23:46.346Z,96220.66
2022-09-20T05:26:19.438Z,96208.31
2022-09-20T05:28:54.561Z,96222.31
2022-09-20T05:31:30.430Z,96224.44
2022-09-20T05:34:03.457Z,96236.06
2022-09-20T05:36:40.832Z,96235.97
2022-09-20T05:39:20.117Z,96161.88
2022-09-20T05:41:54.695Z,96230.47
2022-09-20T05:44:31.168Z,96238.63
2022-09-20T05:47:05.201Z,96258.84
2022-09-20T05:49:43.030Z,96247.19
2022-09-20T05:52:28.158Z,96253.53
2022-09-20T05:55:27.084Z,96249.50
2022-09-20T05:58:04.192Z,96255.72
2022-09-20T06:00:35.609Z,96245.28
2022-09-20T06:03:11.965Z,96178.13
2022-09-20T06:05:49.214Z,96247.84
2022-09-20T06:08:37.336Z,96243.22
2022-09-20T06:11:15.370Z,96259.31
2022-09-20T06:14:01.216Z,96258.09
2022-09-20T06:16:36.546Z,96244.22
2022-09-20T06:19:15.086Z,96263.25
2022-09-20T06:21:51.202Z,96265.31
2022-09-20T06:24:36.964Z,96259.09
2022-09-20T06:27:09.084Z,96240.97
2022-09-20T06:29:39.593Z,96247.63
2022-09-20T06:32:08.264Z,96264.31
2022-09-20T06:34:36.718Z,96265.84
2022-09-20T06:37:31.018Z,96264.47
2022-09-20T06:40:24.938Z,96262.63
2022-09-20T06:42:53.290Z,96268.47
2022-09-20T06:45:21.384Z,96249.47
2022-09-20T06:47:49.636Z,96236.53
2022-09-20T06:50:18.596Z,96258.81
2022-09-20T06:52:47.576Z,96267.84
2022-09-20T06:55:24.955Z,96262.22
2022-09-20T06:57:55.696Z,96264.69
2022-09-20T07:00:23.807Z,96268.31
2022-09-20T07:02:52.438Z,96269.72
2022-09-20T07:05:26.933Z,96274.22
2022-09-20T07:07:58.642Z,96263.06
2022-09-20T07:10:29.237Z,96272.06
2022-09-20T07:13:00.429Z,96188.00
2022-09-20T07:15:29.179Z,96258.63
2022-09-20T07:17:57.468Z,96216.75
2022-09-20T07:20:25.626Z,96269.75
2022-09-20T07:22:54.004Z,96266.59
2022-09-20T07:25:22.075Z,96287.63
2022-09-20T07:27:52.156Z,96294.25
2022-09-20T07:30:21.581Z,96292.09
2022-09-20T07:32:50.068Z,96293.66
2022-09-20T07:35:18.128Z,96298.22
2022-09-20T07:37:47.009Z,96305.03
2022-09-20T07:40:15.914Z,96299.81
2022-09-20T07:42:46.106Z,96311.59
2022-09-20T07:45:15.769Z,96306.50
2022-09-20T07:47:44.938Z,96304.16
2022-09-20T07:50:13.115Z,96228.75
2022-09-20T07:52:41.223Z,96303.03
2022-09-20T07:55:10.223Z,96300.66
2022-09-20T07:57:38.860Z,96298.78
2022-09-20T08:00:09.095Z,96301.84
2022-09-20T08:02:39.422Z,96293.44
2022-09-20T08:05:08.742Z,96258.56
2022-09-20T08:07:36.729Z,96296.22
2022-09-20T08:10:04.890Z,96278.75
2022-09-20T08:15:21.431Z,96271.44
2022-09-20T08:17:51.021Z,96284.69
2022-09-20T08:20:19.555Z,96282.88
2022-09-20T08:23:06.318Z,96280.34
2022-09-20T08:25:35.931Z,96286.66
2022-09-20T08:28:04.122Z,96296.81
2022-09-20T08:30:32.321Z,96297.84
2022-09-20T08:33:02.262Z,96291.00
2022-09-20T08:35:30.675Z,96294.22
2022-09-20T08:39:57.299Z,96292.50
2022-09-20T08:40:49.643Z,96298.78
2022-09-20T08:43:22.286Z,96281.53
2022-09-20T08:45:50.946Z,96281.63
2022-09-20T08:48:21.802Z,96288.91
2022-09-20T08:50:50.209Z,96277.31
2022-09-20T08:53:21.656Z,96301.41
2022-09-20T08:55:49.986Z,96117.97
2022-09-20T08:58:19.241Z,96287.25
2022-09-20T09:00:47.936Z,96290.09
2022-09-20T09:03:18.552Z,96286.44
2022-09-20T09:05:50.597Z,96114.53
2022-09-20T09:08:21.568Z,96285.81
2022-09-20T09:10:54.926Z,96295.66
2022-09-20T09:13:26.796Z,96293.88
2022-09-20T09:16:01.237Z,96248.25
2022-09-20T09:18:34.928Z,96273.56
2022-09-20T09:21:08.151Z,96298.50
2022-09-20T09:23:44.837Z,96293.44
2022-09-20T09:26:18.548Z,96291.72
2022-09-20T09:28:46.870Z,96299.31
2022-09-20T09:31:23.020Z,96306.28
2022-09-20T09:33:51.202Z,96310.63
2022-09-20T09:36:24.665Z,96292.31
2022-09-20T09:39:17.730Z,96303.91
2022-09-20T09:41:46.484Z,96292.25
2022-09-20T09:44:23.178Z,96216.94
2022-09-20T09:46:53.549Z,96292.97
2022-09-20T09:49:23.301Z,96275.75
2022-09-20T09:52:11.942Z,96285.13
2022-09-20T09:54:41.639Z,96293.13
2022-09-20T09:57:23.831Z,96294.69
2022-09-20T10:00:02.469Z,96296.91
2022-09-20T10:03:09.166Z,96299.34
2022-09-20T10:05:46.073Z,96316.09
2022-09-20T10:08:27.242Z,96315.38
2022-09-20T10:11:03.216Z,96297.38
2022-09-20T10:13:38.241Z,96306.03
2022-09-20T10:16:14.541Z,96292.88
2022-09-20T10:18:49.239Z,96288.50
2022-09-20T10:21:28.654Z,96279.53
2022-09-20T10:24:07.555Z,96280.50
2022-09-20T10:26:47.076Z,96286.94
2022-09-20T10:29:27.588Z,96288.91
2022-09-20T10:32:05.529Z,96201.47
2022-09-20T10:35:09.251Z,96275.34
2022-09-20T10:37:49.093Z,96280.00
2022-09-20T10:40:46.760Z,96275.72
2022-09-20T10:43:22.342Z,96278.94
2022-09-20T10:46:27.575Z,96266.44
2022-09-20T10:48:49.161Z,96264.53
2022-09-20T10:51:26.507Z,96283.16
2022-09-20T10:54:02.858Z,96269.75
2022-09-20T10:56:34.910Z,96271.91
2022-09-20T10:59:27.232Z,96276.88
2022-09-20T11:02:08.655Z,96278.53
2022-09-20T11:04:59.217Z,96262.97
2022-09-20T11:07:38.650Z,96279.06
2022-09-20T11:10:16.046Z,96283.78
2022-09-20T11:12:50.880Z,96268.34
2022-09-20T11:15:22.972Z,96275.00
2022-09-20T11:17:57.501Z,96293.78
2022-09-20T11:20:28.387Z,96240.03
2022-09-20T11:22:59.363Z,96241.19
2022-09-20T11:25:34.289Z,96284.13
2022-09-20T11:28:10.677Z,96280.28
2022-09-20T11:30:41.899Z,96297.50
2022-09-20T11:33:15.992Z,96290.25
2022-09-20T11:35:48.195Z,96316.72
2022-09-20T11:38:22.262Z,96225.81
2022-09-20T11:40:54.020Z,96315.69
2022-09-20T11:43:31.334Z,96319.31
2022-09-20T11:46:02.041Z,96327.19
2022-09-20T11:48:36.582Z,96344.41
2022-09-20T11:51:31.422Z,96339.47
2022-09-20T11:54:17.005Z,96347.16
2022-09-20T11:56:51.329Z,96340.00
2022-09-20T11:59:30.051Z,96337.75
2022-09-20T12:02:01.883Z,96326.78
2022-09-20T12:04:34.936Z,96333.88
2022-09-20T12:07:10.603Z,96321.38
2022-09-20T12:09:42.594Z,96311.63
2022-09-20T12:12:20.421Z,96308.22
2022-09-20T12:14:57.577Z,96309.13
2022-09-20T12:18:17.793Z,96300.47
2022-09-20T12:21:15.608Z,96281.22
2022-09-20T12:24:02.775Z,96294.72
2022-09-20T12:26:40.614Z,96298.59
2022-09-20T12:29:54.442Z,96294.59
2022-09-20T12:32:52.020Z,96295.81
2022-09-20T12:36:00.169Z,96296.03
2022-09-20T12:38:31.306Z,96268.09
2022-09-20T12:41:15.146Z,96279.22
2022-09-20T12:43:56.709Z,96281.47
2022-09-20T12:46:30.068Z,96263.66
2022-09-20T12:49:56.199Z,96286.44
2022-09-20T12:52:53.906Z,96287.63
2022-09-20T12:55:40.041Z,96276.13
2022-09-20T12:58:23.114Z,96291.47
2022-09-20T13:00:53.418Z,96295.03
2022-09-20T13:03:28.790Z,96293.66
2022-09-20T13:06:24.218Z,96301.72
2022-09-20T13:08:56.818Z,96288.00
2022-09-20T13:11:27.486Z,96312.81
2022-09-20T13:13:58.673Z,96309.31
2022-09-20T13:16:30.004Z,96338.00
2022-09-20T13:19:05.306Z,96352.88
2022-09-20T13:21:37.488Z,96365.50
2022-09-20T13:24:06.010Z,96353.09
2022-09-20T13:26:36.730Z,96348.53
2022-09-20T13:29:05.797Z,96349.88
2022-09-20T13:31:35.887Z,96373.38
2022-09-20T13:34:21.787Z,96356.38
2022-09-20T13:36:56.355Z,96270.56
2022-09-20T13:39:30.752Z,96349.44
2022-09-20T13:42:03.582Z,96339.88
2022-09-20T13:44:34.499Z,96333.41
2022-09-20T13:47:02.745Z,96337.72
2022-09-20T13:49:33.221Z,96300.16
2022-09-20T13:52:17.085Z,96347.34
2022-09-20T13:54:45.135Z,96299.06
2022-09-20T13:57:19.110Z,96348.34
2022-09-20T13:59:47.837Z,96347.69
2022-09-20T14:02:24.103Z,96350.44
2022-09-20T14:04:55.852Z,96340.94
2022-09-20T14:07:28.197Z,96355.47
2022-09-20T14:09:57.197Z,96347.66
2022-09-20T14:12:25.764Z,96346.00
2022-09-20T14:14:54.355Z,96346.56
2022-09-20T14:17:24.844Z,96348.72
2022-09-20T14:19:56.035Z,96345.34
2022-09-20T14:22:26.953Z,96280.88
2022-09-20T14:25:00.990Z,96348.06
2022-09-20T14:27:31.248Z,96338.91
2022-09-20T14:29:59.995Z,96323.69
2022-09-20T14:32:44.894Z,96323.56
2022-09-20T14:35:17.861Z,96345.84
2022-09-20T14:37:49.719Z,96321.47
2022-09-20T14:40:23.495Z,96330.16
2022-09-20T14:42:55.074Z,96317.50
2022-09-20T14:45:28.700Z,96308.91
2022-09-20T14:48:00.030Z,96339.25
2022-09-20T14:50:31.108Z,96335.75
2022-09-20T14:53:23.881Z,96342.69
2022-09-20T14:56:09.202Z,96345.81
2022-09-20T14:59:05.632Z,96344.34
2022-09-20T15:01:34.713Z,96350.56
2022-09-20T15:04:09.345Z,96352.22
2022-09-20T15:06:39.024Z,96359.59
2022-09-20T15:09:10.313Z,96345.94
2022-09-20T15:11:38.293Z,96361.38
2022-09-20T15:14:06.308Z,96305.75
2022-09-20T15:16:34.696Z,96346.50
2022-09-20T15:19:03.028Z,96365.91
2022-09-20T15:21:31.136Z,96339.81
2022-09-20T15:23:59.358Z,96358.25
2022-09-20T15:26:29.397Z,96359.47
2022-09-20T15:28:57.458Z,96354.81
2022-09-20T15:31:25.539Z,96355.19
2022-09-20T15:33:53.481Z,96348.06
2022-09-20T15:36:21.625Z,96361.34
2022-09-20T15:38:50.268Z,96374.28
2022-09-20T15:41:18.245Z,96371.22
2022-09-20T15:43:50.354Z,96303.47
2022-09-20T15:46:20.782Z,96368.34
2022-09-20T15:48:49.262Z,96377.28
2022-09-20T15:51:17.610Z,96375.03
2022-09-20T15:53:49.355Z,96377.94
2022-09-20T15:56:19.394Z,96379.56
2022-09-20T15:58:50.321Z,96370.94
2022-09-20T16:01:19.481Z,96376.59
2022-09-20T16:03:49.274Z,96384.19
2022-09-20T16:06:19.193Z,96379.66
2022-09-20T16:08:48.721Z,96380.97
2022-09-20T16:11:22.724Z,96392.94
2022-09-20T16:13:55.851Z,96396.19
2022-09-20T16:16:24.334Z,96390.06
2022-09-20T16:19:11.912Z,96402.41
2022-09-20T16:21:42.204Z,96406.63
2022-09-20T16:24:13.502Z,96410.03
2022-09-20T16:26:42.106Z,96397.66
2022-09-20T16:29:12.547Z,96398.91
2022-09-20T16:31:41.859Z,96415.75
2022-09-20T16:34:14.154Z,96393.22
2022-09-20T16:36:43.514Z,96429.69
2022-09-20T16:39:12.765Z,96404.88
2022-09-20T16:41:40.851Z,96417.22
2022-09-20T16:44:09.407Z,96428.09
2022-09-20T16:46:38.911Z,96432.97
2022-09-20T16:49:09.464Z,96422.06
2022-09-20T16:51:38.971Z,96441.72
2022-09-20T16:54:12.071Z,96453.81
2022-09-20T16:56:41.241Z,96456.81
2022-09-20T16:59:09.504Z,96457.22
2022-09-20T17:01:39.793Z,96439.97
2022-09-20T17:04:09.249Z,96466.56
2022-09-20T17:06:39.897Z,96464.84
2022-09-20T17:09:08.879Z,96471.69
2022-09-20T17:11:38.354Z,96459.91
2022-09-20T17:14:06.872Z,96476.47
2022-09-20T17:16:36.933Z,96475.88
2022-09-20T17:19:08.754Z,96462.06
2022-09-20T17:21:38.159Z,96478.25
2022-09-20T17:24:07.505Z,96477.53
2022-09-20T17:26:38.378Z,96478.53
2022-09-20T17:29:07.720Z,96468.22
2022-09-20T17:31:37.339Z,96470.47
2022-09-20T17:34:09.765Z,96458.06
2022-09-20T17:36:39.762Z,96371.25
2022-09-20T17:39:10.045Z,96488.47
2022-09-20T17:41:38.524Z,96476.19
2022-09-20T17:44:08.372Z,96477.53
2022-09-20T17:46:40.617Z,96466.59
2022-09-20T17:49:14.195Z,96478.84
2022-09-20T17:51:43.633Z,96488.78
2022-09-20T17:54:14.196Z,96483.16
2022-09-20T17:56:43.615Z,96488.19
2022-09-20T17:59:12.618Z,96504.31
2022-09-20T18:01:41.859Z,96494.25
2022-09-20T18:04:13.264Z,96484.94
2022-09-20T18:06:44.578Z,96496.56
2022-09-20T18:09:15.434Z,96505.38
2022-09-20T18:11:46.431Z,96504.91
2022-09-20T18:14:14.667Z,96489.31
2022-09-20T18:16:44.272Z,96519.06
2022-09-20T18:19:15.955Z,96475.56
2022-09-20T18:21:46.553Z,96513.00
2022-09-20T18:24:20.833Z,96482.44
2022-09-20T18:26:49.001Z,96513.88
2022-09-20T18:29:18.228Z,96507.59
2022-09-20T18:31:48.968Z,96520.25
2022-09-20T18:34:21.936Z,96444.59
2022-09-20T18:36:53.601Z,96533.28
2022-09-20T18:39:23.108Z,96539.59
2022-09-20T18:41:51.514Z,96546.63
2022-09-20T18:44:20.123Z,96541.59
2022-09-20T18:46:48.585Z,96545.16
2022-09-20T18:49:17.268Z,96555.19
2022-09-20T18:51:47.495Z,96536.81
2022-09-20T18:54:16.074Z,96547.00
2022-09-20T18:56:45.716Z,96566.84
2022-09-20T18:59:15.880Z,96564.50
2022-09-20T19:02:01.740Z,96569.50
2022-09-20T19:04:49.332Z,96567.88
2022-09-20T19:07:22.952Z,96571.41
2022-09-20T19:09:54.675Z,96581.81
2022-09-20T19:12:28.046Z,96584.16
2022-09-20T19:15:07.161Z,96589.00
2022-09-20T19:17:48.001Z,96597.56
2022-09-20T19:20:22.164Z,96593.19
2022-09-20T19:23:04.406Z,96597.47
2022-09-20T19:25:37.990Z,96574.34
2022-09-20T19:28:06.531Z,96594.28
2022-09-20T19:30:35.985Z,96583.38
2022-09-20T19:33:04.651Z,96588.38
2022-09-20T19:35:38.241Z,96567.84
2022-09-20T19:38:15.581Z,96577.03
2022-09-20T19:40:47.432Z,96603.78
2022-09-20T19:43:35.070Z,96598.72
2022-09-20T19:46:10.503Z,96603.84
2022-09-20T19:48:40.495Z,96601.09
2022-09-20T19:51:12.331Z,96600.38
2022-09-20T19:53:42.816Z,96605.09
2022-09-20T19:56:23.021Z,96605.56
2022-09-20T19:58:53.129Z,96516.31
2022-09-20T20:01:22.657Z,96616.94
2022-09-20T20:03:51.410Z,96614.38
2022-09-20T20:06:23.194Z,96619.19
2022-09-20T20:08:56.419Z,96614.56
2022-09-20T20:11:33.664Z,96618.84
2022-09-20T20:14:08.225Z,96620.81
2022-09-20T20:16:46.861Z,96625.03
2022-09-20T20:19:31.630Z,96634.31
2022-09-20T20:22:02.315Z,96605.97
2022-09-20T20:24:35.405Z,96626.47
2022-09-20T20:27:04.579Z,96630.84
2022-09-20T20:29:51.016Z,96548.97
2022-09-20T20:32:19.068Z,96629.63
2022-09-20T20:34:47.274Z,96622.16
2022-09-20T20:37:18.149Z,96632.28
2022-09-20T20:39:47.586Z,96635.94
2022-09-20T20:42:15.993Z,96624.44
2022-09-20T20:44:44.161Z,96626.16
2022-09-20T20:47:12.216Z,96641.91
2022-09-20T20:49:40.236Z,96636.81
2022-09-20T20:52:09.016Z,96642.75
2022-09-20T20:54:37.527Z,96631.59
2022-09-20T20:57:07.087Z,96652.19
2022-09-20T20:59:35.128Z,96651.38
2022-09-20T21:02:07.952Z,96655.75
2022-09-20T21:04:37.150Z,96657.31
2022-09-20T21:07:07.724Z,96657.31
2022-09-20T21:09:36.019Z,96645.16
2022-09-20T21:12:05.162Z,96664.13
2022-09-20T21:14:35.330Z,96664.84
2022-09-20T21:17:11.032Z,96667.22
2022-09-20T21:19:39.170Z,96673.91
2022-09-20T21:22:09.542Z,96649.09
2022-09-20T21:24:38.070Z,96589.75
2022-09-20T21:27:08.521Z,96667.78
2022-09-20T21:29:38.338Z,96672.00
2022-09-20T21:32:10.794Z,96668.88
2022-09-20T21:34:39.727Z,96659.81
2022-09-20T21:37:07.890Z,96669.09
2022-09-20T21:39:36.001Z,96675.03
2022-09-20T21:42:12.928Z,96669.19
2022-09-20T21:44:43.268Z,96674.28
2022-09-20T21:47:11.421Z,96679.38
2022-09-20T21:49:39.367Z,96680.22
2022-09-20T21:52:15.279Z,96673.44
2022-09-20T21:54:46.443Z,96682.03
2022-09-20T21:57:14.757Z,96694.94
2022-09-20T21:59:44.094Z,96673.66
2022-09-20T22:02:12.208Z,96688.38
2022-09-20T22:04:42.599Z,96695.13
2022-09-20T22:07:10.719Z,96701.03
2022-09-20T22:09:40.116Z,96693.13
2022-09-20T22:12:08.266Z,96687.28
2022-09-20T22:14:39.438Z,96688.78
2022-09-20T22:17:08.786Z,96681.13
2022-09-20T22:19:37.750Z,96687.03
2022-09-20T22:22:05.909Z,96680.22
2022-09-20T22:24:33.978Z,96690.41
2022-09-20T22:27:02.062Z,96694.50
2022-09-20T22:29:30.063Z,96694.44
2022-09-20T22:31:58.049Z,96697.50
2022-09-20T22:34:27.391Z,96690.97
2022-09-20T22:36:55.727Z,96694.44
2022-09-20T22:39:23.862Z,96693.69
2022-09-20T22:41:52.297Z,96606.00
2022-09-20T22:44:26.400Z,96693.78
2022-09-20T22:46:54.509Z,96692.97
2022-09-20T22:49:23.186Z,96677.94
2022-09-20T22:51:52.601Z,96691.34
2022-09-20T22:54:20.708Z,96689.50
2022-09-20T22:56:48.815Z,96686.94
2022-09-20T22:59:17.127Z,96679.56
2022-09-20T23:01:46.296Z,96609.28
2022-09-20T23:04:16.558Z,96687.88
2022-09-20T23:06:47.028Z,96619.22
2022-09-20T23:09:17.977Z,96697.31
2022-09-20T23:11:46.587Z,96683.44
2022-09-20T23:14:16.066Z,96682.19
2022-09-20T23:16:47.156Z,96689.84
2022-09-20T23:19:16.150Z,96620.22
2022-09-20T23:21:44.957Z,96673.19
2022-09-20T23:24:16.534Z,96685.69
2022-09-20T23:26:45.307Z,96619.81
2022-09-20T23:29:15.367Z,96698.09
2022-09-20T23:31:46.342Z,96696.53
2022-09-20T23:34:18.961Z,96696.69
2022-09-20T23:36:47.927Z,96698.44
2022-09-20T23:39:17.459Z,96703.59
2022-09-20T23:41:50.625Z,96694.13
2022-09-20T23:44:19.314Z,96702.88
2022-09-20T23:46:47.755Z,96681.94
2022-09-20T23:49:16.003Z,96698.66
2022-09-20T23:51:43.947Z,96705.09
2022-09-20T23:54:11.914Z,96699.91
2022-09-20T23:56:42.846Z,96628.44
2022-09-20T23:59:10.879Z,96679.84
